Time;durP1;ratioP1;P1;durP2;ratioP2;P2;SDS_P1;SDS_P2;PMS_P1;PMS_P2;Temp;Humidity;BMP_temperature;BMP_pressure;BME280_temperature;BME280_humidity;BME280_pressure;Samples;Min_cycle;Max_cycle;Signal;HPM_P1;HPM_P2
2022/04/26 03:37:05;;;;;;;17.00;7.37;;;3.40;97.30;;;;;;5050555;28;20857;-78
2022/04/26 03:39:34;;;;;;;13.23;7.53;;;3.40;97.30;;;;;;5051306;28;20418;-78
2022/04/26 03:42:02;;;;;;;13.70;6.77;;;3.40;97.30;;;;;;5052662;28;20476;-78
2022/04/26 03:44:28;;;;;;;16.30;7.00;;;3.30;97.30;;;;;;5052253;28;20426;-78
2022/04/26 03:46:53;;;;;;;13.07;6.53;;;3.30;97.30;;;;;;5051142;28;20499;-77
2022/04/26 03:49:20;;;;;;;15.77;7.27;;;3.30;97.30;;;;;;5049315;28;20422;-74
2022/04/26 03:51:46;;;;;;;21.33;7.00;;;3.20;97.30;;;;;;5049520;28;20209;-77
2022/04/26 03:54:12;;;;;;;15.50;7.30;;;3.20;97.30;;;;;;5048783;28;20494;-74
2022/04/26 03:56:37;;;;;;;19.50;8.80;;;3.20;97.30;;;;;;5050346;28;20229;-74
2022/04/26 03:59:03;;;;;;;18.70;9.00;;;3.20;97.30;;;;;;5049060;28;20179;-75
2022/04/26 04:01:28;;;;;;;11.00;6.30;;;3.20;97.30;;;;;;5049224;28;20184;-75
2022/04/26 04:03:54;;;;;;;11.50;5.70;;;3.20;97.30;;;;;;5050227;28;20203;-75
2022/04/26 04:06:19;;;;;;;20.03;6.93;;;3.20;97.30;;;;;;5048251;28;20273;-74
2022/04/26 04:08:45;;;;;;;23.27;7.20;;;3.20;97.30;;;;;;5048691;28;20210;-75
2022/04/26 04:11:10;;;;;;;21.47;9.47;;;3.20;97.30;;;;;;5050169;28;20183;-74
2022/04/26 04:13:36;;;;;;;23.83;9.67;;;3.20;97.30;;;;;;5048859;28;20229;-75
2022/04/26 04:16:02;;;;;;;19.27;8.03;;;3.20;97.30;;;;;;5052455;28;20195;-74
2022/04/26 04:21:11;;;;;;;22.13;9.20;;;3.20;97.30;;;;;;5057345;28;20166;-75
2022/04/26 04:23:40;;;;;;;17.23;6.70;;;3.20;97.30;;;;;;5056872;28;20417;-75
2022/04/26 04:26:07;;;;;;;20.07;8.30;;;3.20;97.30;;;;;;5056994;28;20210;-75
2022/04/26 04:28:34;;;;;;;22.40;9.70;;;3.20;97.30;;;;;;5055541;28;20950;-75
2022/04/26 04:31:00;;;;;;;20.90;9.00;;;3.30;97.30;;;;;;5054721;28;20810;-75
2022/04/26 04:33:25;;;;;;;19.20;8.43;;;3.30;97.30;;;;;;5055954;28;20477;-75
2022/04/26 04:35:51;;;;;;;22.73;8.77;;;3.30;97.30;;;;;;5056790;28;20993;-75
2022/04/26 04:38:17;;;;;;;23.97;10.27;;;3.30;97.30;;;;;;5056541;28;20735;-75
2022/04/26 04:40:43;;;;;;;24.00;8.73;;;3.30;97.30;;;;;;5055687;28;20313;-75
2022/04/26 04:43:10;;;;;;;24.63;9.33;;;3.40;97.30;;;;;;5055324;28;20199;-75
2022/04/26 04:45:35;;;;;;;28.80;10.63;;;3.40;97.30;;;;;;5056930;28;20430;-74
2022/04/26 04:48:01;;;;;;;32.67;10.90;;;3.40;97.30;;;;;;5056601;28;20907;-75
2022/04/26 04:50:27;;;;;;;19.47;8.83;;;3.40;97.30;;;;;;5054563;28;20184;-75
2022/04/26 04:52:52;;;;;;;20.93;10.60;;;3.50;97.30;;;;;;5051223;28;20172;-75
2022/04/26 04:55:18;;;;;;;37.77;11.20;;;3.50;97.30;;;;;;5054779;28;20272;-75
2022/04/26 04:57:44;;;;;;;19.97;8.43;;;3.50;97.30;;;;;;5055286;28;20187;-75
2022/04/26 05:00:09;;;;;;;29.23;10.83;;;3.50;97.30;;;;;;5055236;28;20176;-75
2022/04/26 05:02:36;;;;;;;23.77;9.60;;;3.50;97.30;;;;;;5053209;28;20188;-75
2022/04/26 05:05:02;;;;;;;28.53;10.07;;;3.60;97.30;;;;;;5055696;28;20552;-76
2022/04/26 05:07:28;;;;;;;22.00;11.30;;;3.60;97.30;;;;;;5055192;28;20513;-75
2022/04/26 05:09:54;;;;;;;27.17;12.77;;;3.60;97.30;;;;;;5055266;28;20187;-75
2022/04/26 05:12:20;;;;;;;29.97;10.80;;;3.70;97.30;;;;;;5053117;28;20441;-76
2022/04/26 05:14:46;;;;;;;26.80;11.37;;;3.70;97.30;;;;;;5054634;28;20580;-75
2022/04/26 05:17:11;;;;;;;21.83;9.20;;;3.70;97.30;;;;;;5053794;28;20184;-76
2022/04/26 05:19:37;;;;;;;19.67;8.80;;;3.80;97.30;;;;;;5055877;28;20183;-74
2022/04/26 05:22:08;;;;;;;27.40;11.87;;;3.90;97.30;;;;;;5053905;28;20199;-74
2022/04/26 05:24:56;;;;;;;28.10;9.87;;;4.00;97.30;;;;;;5053618;28;20457;-75
2022/04/26 05:27:25;;;;;;;24.13;10.83;;;4.10;97.30;;;;;;5053601;28;20823;-75
2022/04/26 05:29:51;;;;;;;29.57;10.70;;;4.30;97.30;;;;;;5052516;28;20548;-75
2022/04/26 05:32:22;;;;;;;26.00;8.80;;;4.30;97.30;;;;;;5052012;28;20861;-75
2022/04/26 05:34:54;;;;;;;39.73;10.00;;;4.40;97.30;;;;;;5051718;28;20488;-75
2022/04/26 05:37:20;;;;;;;23.40;9.27;;;4.50;97.30;;;;;;5050293;28;20558;-75
2022/04/26 05:39:45;;;;;;;29.10;12.07;;;4.70;97.30;;;;;;5051651;28;20497;-75
2022/04/26 05:42:11;;;;;;;28.07;12.70;;;4.80;97.30;;;;;;5051779;28;20318;-75
2022/04/26 05:44:38;;;;;;;37.53;12.60;;;4.90;97.30;;;;;;5051224;28;20196;-75
2022/04/26 05:47:08;;;;;;;34.77;12.90;;;5.00;97.30;;;;;;5051715;28;20578;-75
2022/04/26 05:49:34;;;;;;;36.10;12.30;;;5.10;97.30;;;;;;5051349;28;20433;-75
2022/04/26 05:52:00;;;;;;;33.17;13.03;;;5.20;97.30;;;;;;5052238;28;20457;-75
2022/04/26 05:54:26;;;;;;;36.40;13.53;;;5.30;97.30;;;;;;5051116;28;20306;-75
2022/04/26 05:56:54;;;;;;;31.07;12.33;;;5.40;97.30;;;;;;5051475;28;20505;-75
2022/04/26 05:59:24;;;;;;;39.13;13.77;;;5.60;97.30;;;;;;5051469;28;20198;-75
2022/04/26 06:01:51;;;;;;;38.23;13.20;;;5.60;97.30;;;;;;5051957;28;20430;-75
2022/04/26 06:04:16;;;;;;;38.20;13.20;;;5.80;97.30;;;;;;5052582;28;21017;-74
2022/04/26 06:06:42;;;;;;;41.53;14.67;;;5.90;97.30;;;;;;5051641;28;20422;-75
2022/04/26 06:09:08;;;;;;;41.37;13.60;;;6.10;97.30;;;;;;5051121;28;20625;-75
2022/04/26 06:11:34;;;;;;;41.40;15.10;;;6.20;97.30;;;;;;5051240;28;20180;-75
2022/04/26 06:14:01;;;;;;;41.17;14.60;;;6.30;97.30;;;;;;5050971;28;20213;-75
2022/04/26 06:16:28;;;;;;;38.97;15.10;;;6.50;97.30;;;;;;5051004;28;20548;-75
2022/04/26 06:18:54;;;;;;;46.77;17.57;;;6.60;97.30;;;;;;5052478;28;20406;-75
2022/04/26 06:21:19;;;;;;;48.00;18.97;;;6.80;97.30;;;;;;5051185;28;20487;-75
2022/04/26 06:23:45;;;;;;;39.50;14.87;;;6.90;97.30;;;;;;5052535;28;20414;-74
2022/04/26 06:26:11;;;;;;;49.57;16.10;;;7.00;97.30;;;;;;5051789;28;20270;-75
2022/04/26 06:28:36;;;;;;;44.33;16.67;;;7.20;97.30;;;;;;5049302;28;20188;-75
2022/04/26 06:31:02;;;;;;;48.00;15.30;;;7.30;97.30;;;;;;5051549;28;20187;-75
2022/04/26 06:33:28;;;;;;;48.50;16.67;;;7.50;97.30;;;;;;5050603;28;20219;-75
2022/04/26 06:35:53;;;;;;;50.63;18.13;;;7.60;97.30;;;;;;5051226;28;20493;-75
2022/04/26 06:38:22;;;;;;;59.03;18.33;;;7.80;97.30;;;;;;5049490;28;20227;-76
2022/04/26 06:40:48;;;;;;;51.87;16.47;;;8.00;97.30;;;;;;5041410;28;20211;-75
2022/04/26 06:43:14;;;;;;;53.20;17.27;;;8.10;97.30;;;;;;5050850;28;20814;-75
2022/04/26 06:45:40;;;;;;;52.60;16.07;;;8.20;97.30;;;;;;5048838;28;20454;-75
2022/04/26 06:48:10;;;;;;;52.83;19.17;;;8.40;97.30;;;;;;5050245;28;20410;-76
2022/04/26 06:50:36;;;;;;;53.87;17.33;;;8.50;97.30;;;;;;5050202;28;20499;-75
2022/04/26 06:53:01;;;;;;;49.13;16.33;;;8.70;97.30;;;;;;5050598;28;20923;-75
2022/04/26 06:55:27;;;;;;;56.33;18.23;;;8.90;97.30;;;;;;5050300;28;20470;-76
2022/04/26 06:57:53;;;;;;;57.47;19.87;;;9.00;97.30;;;;;;5050401;28;20175;-76
2022/04/26 07:00:18;;;;;;;54.80;19.40;;;9.10;97.30;;;;;;5050026;28;20215;-76
2022/04/26 07:02:45;;;;;;;50.20;16.93;;;9.30;97.30;;;;;;5049804;28;20180;-76
2022/04/26 07:05:11;;;;;;;39.60;14.77;;;9.40;97.30;;;;;;5051425;28;20811;-76
2022/04/26 07:07:38;;;;;;;48.37;15.10;;;9.50;97.30;;;;;;5049977;28;20819;-76
2022/04/26 07:10:05;;;;;;;44.80;17.23;;;9.60;97.30;;;;;;5049998;28;20943;-76
2022/04/26 07:12:31;;;;;;;41.63;15.57;;;9.70;97.30;;;;;;5051374;28;20486;-77
2022/04/26 07:14:57;;;;;;;40.70;15.33;;;9.70;97.30;;;;;;5050970;28;20548;-76
2022/04/26 07:17:23;;;;;;;35.00;13.40;;;9.80;97.30;;;;;;5049875;28;20552;-76
2022/04/26 07:19:48;;;;;;;59.07;18.00;;;10.00;97.30;;;;;;5048343;28;20991;-76
2022/04/26 07:22:14;;;;;;;43.90;14.17;;;10.10;97.30;;;;;;5047673;28;20658;-76
2022/04/26 07:24:40;;;;;;;44.50;16.00;;;10.20;97.30;;;;;;5048522;28;20568;-76
2022/04/26 07:27:06;;;;;;;49.00;16.73;;;10.40;97.30;;;;;;5049686;28;20195;-76
2022/04/26 07:29:31;;;;;;;41.47;14.37;;;10.50;97.30;;;;;;5049522;28;20418;-76
2022/04/26 07:31:57;;;;;;;37.67;13.80;;;10.60;97.30;;;;;;5050602;28;20259;-76
2022/04/26 07:34:24;;;;;;;38.03;15.40;;;10.70;97.30;;;;;;5050620;28;20212;-76
2022/04/26 07:36:52;;;;;;;42.53;15.27;;;10.90;97.30;;;;;;5050558;28;20204;-76
2022/04/26 07:39:18;;;;;;;41.87;15.50;;;11.00;97.30;;;;;;5049749;28;20421;-76
2022/04/26 07:41:48;;;;;;;44.67;15.57;;;11.10;97.30;;;;;;5049168;28;21049;-76
2022/04/26 07:44:14;;;;;;;40.27;15.00;;;11.20;97.30;;;;;;5049326;28;20446;-76
2022/04/26 07:46:45;;;;;;;54.40;18.47;;;11.40;97.30;;;;;;5050550;28;20884;-76
2022/04/26 07:49:12;;;;;;;46.77;13.73;;;11.50;97.30;;;;;;5049124;28;20411;-76
2022/04/26 07:51:38;;;;;;;42.17;16.20;;;11.70;97.30;;;;;;5050323;28;20417;-77
2022/04/26 07:54:05;;;;;;;32.23;12.70;;;11.90;97.30;;;;;;5049477;28;20459;-77
2022/04/26 07:56:31;;;;;;;40.97;14.27;;;12.00;97.30;;;;;;5048890;28;20317;-77
2022/04/26 07:58:58;;;;;;;34.07;13.10;;;12.10;97.30;;;;;;5048827;28;21047;-77
2022/04/26 08:01:25;;;;;;;46.53;15.67;;;12.20;97.30;;;;;;5029425;28;20468;-75
2022/04/26 08:03:51;;;;;;;37.20;13.80;;;12.20;97.30;;;;;;5029450;28;20429;-76
2022/04/26 08:06:17;;;;;;;37.30;13.10;;;12.30;97.30;;;;;;5030842;28;20407;-76
2022/04/26 08:08:43;;;;;;;44.97;15.70;;;12.50;97.30;;;;;;5046146;28;20427;-75
2022/04/26 08:11:12;;;;;;;36.43;14.70;;;12.60;97.30;;;;;;5030511;28;20202;-75
2022/04/26 08:13:42;;;;;;;36.47;14.13;;;12.70;97.30;;;;;;5045791;28;20207;-79
2022/04/26 08:16:08;;;;;;;33.20;12.10;;;12.80;97.30;;;;;;5030509;28;20992;-75
2022/04/26 08:18:34;;;;;;;34.77;13.50;;;12.90;97.30;;;;;;5029151;28;20419;-76
2022/04/26 08:21:00;;;;;;;29.93;11.23;;;13.00;97.30;;;;;;5030297;28;20407;-75
2022/04/26 08:23:26;;;;;;;39.73;11.83;;;13.20;97.30;;;;;;5045943;28;20181;-76
2022/04/26 08:28:36;;;;;;;32.97;11.77;;;13.60;97.30;;;;;;5030553;28;20159;-76
2022/04/26 08:31:02;;;;;;;40.00;11.43;;;13.70;97.30;;;;;;5045555;28;20908;-75
2022/04/26 08:33:29;;;;;;;31.20;10.40;;;13.70;97.30;;;;;;5045694;28;20175;-75
2022/04/26 08:35:55;;;;;;;18.93;7.33;;;13.80;97.30;;;;;;5030464;28;20427;-76
2022/04/26 08:38:21;;;;;;;18.33;8.20;;;13.80;96.60;;;;;;5045788;28;20536;-76
2022/04/26 08:40:47;;;;;;;18.90;8.53;;;13.80;96.30;;;;;;5030414;28;20192;-76
2022/04/26 08:43:12;;;;;;;19.80;8.87;;;13.80;96.00;;;;;;5030341;28;20260;-77
2022/04/26 08:45:38;;;;;;;20.40;7.77;;;14.00;95.90;;;;;;5032784;28;20442;-76
2022/04/26 08:50:59;;;;;;;11.70;5.97;;;14.30;94.00;;;;;;5050341;28;20448;-75
2022/04/26 08:53:26;;;;;;;11.60;6.47;;;14.40;92.10;;;;;;5048958;28;20421;-75
2022/04/26 08:55:57;;;;;;;17.47;7.17;;;14.60;93.00;;;;;;5049925;28;21139;-76
2022/04/26 08:58:25;;;;;;;20.13;7.07;;;14.80;92.50;;;;;;5048776;28;21099;-76
2022/04/26 09:01:05;;;;;;;18.50;7.23;;;15.00;91.60;;;;;;5048673;28;20763;-75
2022/04/26 09:03:32;;;;;;;12.47;6.00;;;15.10;91.70;;;;;;5052192;28;20406;-75
2022/04/26 09:06:07;;;;;;;13.07;6.53;;;15.10;90.00;;;;;;5053719;28;20433;-77
2022/04/26 09:08:34;;;;;;;25.33;8.03;;;15.10;90.60;;;;;;5052502;28;20456;-75
2022/04/26 09:11:00;;;;;;;13.10;6.63;;;15.10;91.30;;;;;;5052144;28;20953;-75
2022/04/26 09:13:26;;;;;;;14.67;6.30;;;15.10;89.60;;;;;;5055233;28;20891;-73
2022/04/26 09:15:54;;;;;;;22.70;8.40;;;15.20;90.20;;;;;;5053592;28;20433;-76
2022/04/26 09:18:30;;;;;;;12.23;5.30;;;15.30;90.30;;;;;;5052314;28;20414;-74
2022/04/26 09:21:09;;;;;;;10.30;5.80;;;15.50;88.50;;;;;;5053598;28;20893;-75
2022/04/26 09:23:38;;;;;;;13.70;6.90;;;15.70;87.40;;;;;;5053640;28;20398;-75
2022/04/26 09:26:08;;;;;;;19.17;6.00;;;15.70;86.50;;;;;;5053435;28;20524;-76
2022/04/26 09:28:35;;;;;;;11.67;4.80;;;15.60;86.80;;;;;;5053338;28;20810;-75
2022/04/26 09:31:00;;;;;;;14.60;6.40;;;15.70;86.00;;;;;;5053301;28;20410;-75
2022/04/26 09:33:46;;;;;;;14.47;5.93;;;15.80;86.60;;;;;;5052447;28;20426;-75
2022/04/26 09:36:13;;;;;;;11.43;6.40;;;15.90;86.00;;;;;;5052056;28;20200;-75
2022/04/26 09:38:41;;;;;;;10.00;5.10;;;16.00;86.20;;;;;;5053008;28;20498;-76
2022/04/26 09:41:09;;;;;;;14.07;5.93;;;16.20;85.60;;;;;;5051903;28;20414;-75
2022/04/26 09:43:38;;;;;;;10.47;4.83;;;16.20;84.90;;;;;;5051956;28;20560;-75
2022/04/26 09:46:04;;;;;;;13.77;6.47;;;16.30;82.70;;;;;;5053111;28;20432;-75
2022/04/26 09:48:33;;;;;;;13.00;5.87;;;16.40;84.80;;;;;;5053077;28;20417;-75
2022/04/26 09:50:59;;;;;;;11.53;5.17;;;16.60;84.20;;;;;;5051612;28;20422;-75
2022/04/26 09:53:29;;;;;;;12.10;5.90;;;16.50;82.90;;;;;;5051341;28;20414;-75
2022/04/26 09:55:56;;;;;;;10.10;5.50;;;16.50;83.30;;;;;;5052776;28;20195;-75
2022/04/26 09:58:23;;;;;;;9.80;4.70;;;16.40;82.20;;;;;;5051493;28;20786;-75
2022/04/26 10:00:50;;;;;;;9.47;4.80;;;16.40;82.60;;;;;;5051403;28;21013;-76
2022/04/26 10:03:24;;;;;;;9.50;4.40;;;16.40;82.10;;;;;;5052738;28;20434;-75
2022/04/26 10:06:02;;;;;;;10.53;5.10;;;16.40;81.60;;;;;;5052847;28;20442;-75
2022/04/26 10:08:30;;;;;;;10.77;4.77;;;16.40;81.60;;;;;;5051567;28;20418;-76
2022/04/26 10:10:56;;;;;;;7.43;3.63;;;16.50;82.60;;;;;;5051661;28;20402;-77
2022/04/26 10:13:32;;;;;;;13.80;5.00;;;16.70;83.40;;;;;;5051479;28;20450;-76
2022/04/26 10:16:08;;;;;;;6.23;4.10;;;17.00;83.90;;;;;;5051344;28;20454;-77
2022/04/26 10:18:39;;;;;;;9.07;4.73;;;17.30;81.80;;;;;;5044631;28;21012;-76
2022/04/26 10:21:06;;;;;;;6.33;4.07;;;17.40;80.00;;;;;;5052933;28;20398;-76
2022/04/26 10:23:50;;;;;;;8.00;4.90;;;17.50;79.30;;;;;;5050368;28;20666;-76
2022/04/26 10:26:24;;;;;;;11.67;5.00;;;17.60;79.90;;;;;;5049898;28;20450;-78
2022/04/26 10:29:06;;;;;;;12.90;5.00;;;17.70;80.70;;;;;;5039609;28;20767;-77
2022/04/26 10:31:40;;;;;;;10.37;5.10;;;17.70;80.90;;;;;;5047390;28;20437;-76
2022/04/26 10:34:18;;;;;;;10.10;5.00;;;17.70;82.90;;;;;;5051973;28;20446;-76
2022/04/26 10:36:47;;;;;;;9.50;4.03;;;17.60;80.50;;;;;;5052149;28;20463;-75
2022/04/26 10:39:12;;;;;;;8.83;4.57;;;17.50;79.70;;;;;;5051845;28;20443;-76
2022/04/26 10:41:43;;;;;;;11.60;4.50;;;17.50;79.90;;;;;;5052118;28;20417;-77
2022/04/26 10:44:15;;;;;;;9.97;4.70;;;17.70;79.60;;;;;;5052012;28;20207;-77
2022/04/26 10:46:42;;;;;;;13.33;4.30;;;17.60;78.50;;;;;;5050626;28;20410;-77
2022/04/26 10:49:29;;;;;;;8.90;4.23;;;17.40;80.10;;;;;;5050464;28;20426;-77
2022/04/26 10:51:56;;;;;;;11.80;5.13;;;17.10;79.70;;;;;;5050681;28;20475;-76
2022/04/26 10:55:03;;;;;;;10.57;4.67;;;16.70;79.90;;;;;;5050520;28;20465;-76
2022/04/26 10:57:46;;;;;;;6.90;4.60;;;16.30;81.40;;;;;;5048775;28;20472;-76
2022/04/26 11:00:25;;;;;;;8.40;5.57;;;16.00;80.60;;;;;;5050600;28;20417;-77
2022/04/26 11:02:51;;;;;;;10.90;4.00;;;15.80;80.90;;;;;;5049679;28;20472;-77
2022/04/26 11:05:27;;;;;;;11.97;5.20;;;16.20;84.10;;;;;;5050048;28;20485;-77
2022/04/26 11:07:54;;;;;;;8.70;4.70;;;16.60;85.20;;;;;;5050441;28;20725;-77
2022/04/26 11:10:25;;;;;;;11.43;4.60;;;16.90;82.50;;;;;;5050545;28;20422;-77
2022/04/26 11:12:51;;;;;;;11.60;4.10;;;17.00;81.50;;;;;;5050082;28;20414;-77
2022/04/26 11:15:21;;;;;;;7.27;4.30;;;17.10;81.40;;;;;;5051577;28;20953;-77
2022/04/26 11:17:49;;;;;;;15.23;5.07;;;17.20;81.80;;;;;;5051462;28;20274;-77
2022/04/26 11:20:17;;;;;;;9.70;4.33;;;17.10;82.10;;;;;;5050039;28;20422;-77
2022/04/26 11:22:57;;;;;;;8.10;4.03;;;17.10;81.20;;;;;;5051652;28;20493;-77
2022/04/26 11:28:12;;;;;;;10.73;4.90;;;17.00;81.80;;;;;;5051781;28;20437;-77
2022/04/26 11:30:45;;;;;;;7.20;3.67;;;17.20;82.50;;;;;;5050083;28;20414;-76
2022/04/26 11:33:15;;;;;;;5.30;3.13;;;17.30;80.30;;;;;;5049924;28;20406;-77
2022/04/26 11:35:42;;;;;;;6.23;2.93;;;17.50;78.50;;;;;;5049022;28;20466;-77
2022/04/26 11:38:13;;;;;;;6.40;3.30;;;17.80;79.50;;;;;;5049663;28;20470;-76
2022/04/26 11:40:58;;;;;;;7.70;4.00;;;18.10;78.90;;;;;;5051130;28;20417;-77
2022/04/26 11:43:27;;;;;;;7.50;3.60;;;18.50;80.10;;;;;;5048270;28;20434;-77
2022/04/26 11:45:54;;;;;;;7.00;3.60;;;18.60;78.20;;;;;;5050131;28;20983;-76
2022/04/26 11:48:21;;;;;;;5.10;3.10;;;18.50;78.10;;;;;;5050831;28;20980;-78
2022/04/26 11:50:51;;;;;;;4.80;3.23;;;18.60;77.90;;;;;;5048880;28;20434;-77
2022/04/26 11:53:19;;;;;;;5.47;3.67;;;18.70;76.10;;;;;;5046859;28;20826;-77
2022/04/26 11:56:00;;;;;;;4.77;2.30;;;18.80;77.10;;;;;;5064818;28;20527;-77
2022/04/26 11:58:28;;;;;;;5.57;3.27;;;18.60;75.10;;;;;;5048629;28;20422;-77
2022/04/26 12:01:10;;;;;;;5.03;3.17;;;18.40;76.80;;;;;;5049363;28;20415;-77
2022/04/26 12:03:41;;;;;;;7.53;3.77;;;18.30;75.00;;;;;;5029256;28;20473;-77
2022/04/26 12:06:09;;;;;;;5.87;3.50;;;18.10;76.90;;;;;;5037249;28;20433;-77
2022/04/26 12:08:56;;;;;;;4.53;3.03;;;18.10;77.20;;;;;;5049022;28;20465;-77
2022/04/26 12:11:30;;;;;;;5.80;3.83;;;18.10;77.20;;;;;;5043778;28;20446;-77
2022/04/26 12:13:59;;;;;;;6.53;3.90;;;18.20;77.20;;;;;;5048550;28;20469;-77
2022/04/26 12:16:24;;;;;;;7.43;3.43;;;18.50;77.40;;;;;;5049299;28;20418;-77
2022/04/26 12:18:51;;;;;;;15.30;3.77;;;18.90;78.20;;;;;;5048863;28;20782;-77
2022/04/26 12:21:17;;;;;;;7.40;3.90;;;19.20;78.00;;;;;;5049417;28;20229;-77
2022/04/26 12:23:43;;;;;;;6.57;3.67;;;19.60;77.00;;;;;;5050423;28;21021;-77
2022/04/26 12:26:11;;;;;;;7.50;3.47;;;19.90;77.30;;;;;;5050766;28;20426;-76
2022/04/26 12:28:50;;;;;;;6.40;3.60;;;20.10;75.90;;;;;;5050891;28;20187;-77
2022/04/26 12:31:28;;;;;;;6.60;3.40;;;20.40;75.30;;;;;;5041134;28;20862;-77
2022/04/26 12:34:14;;;;;;;4.10;2.63;;;20.50;75.20;;;;;;5044416;28;20473;-78
2022/04/26 12:36:56;;;;;;;4.30;2.90;;;20.50;72.70;;;;;;5031663;28;21054;-78
2022/04/26 12:39:24;;;;;;;13.60;2.23;;;20.30;72.80;;;;;;5050305;28;20426;-78
2022/04/26 12:41:51;;;;;;;4.97;2.53;;;20.20;71.90;;;;;;5034681;28;20415;-78
2022/04/26 12:44:18;;;;;;;3.20;2.43;;;19.80;71.40;;;;;;5052798;28;20437;-77
2022/04/26 12:50:27;;;;;;;3.53;2.43;;;19.40;71.60;;;;;;5051544;28;20422;-77
2022/04/26 12:52:38;;;;;;;3.70;2.33;;;19.20;75.20;;;;;;5053451;28;20433;-77
2022/04/26 12:55:03;;;;;;;6.93;2.50;;;19.60;72.90;;;;;;5050613;28;20466;-78
2022/04/26 12:57:29;;;;;;;4.07;2.60;;;20.00;71.20;;;;;;5049549;28;20652;-78
2022/04/26 12:59:55;;;;;;;5.83;3.17;;;20.30;71.20;;;;;;5052089;28;20179;-77
2022/04/26 13:02:20;;;;;;;5.40;3.40;;;20.50;72.90;;;;;;5050633;28;20720;-78
2022/04/26 13:04:46;;;;;;;5.10;3.40;;;20.70;73.50;;;;;;5050650;28;20738;-77
2022/04/26 13:07:11;;;;;;;5.37;3.30;;;20.90;72.10;;;;;;5051084;28;20226;-78
2022/04/26 13:09:37;;;;;;;5.53;3.53;;;20.90;71.60;;;;;;5047155;28;20562;-78
2022/04/26 13:12:03;;;;;;;4.63;3.23;;;20.60;71.00;;;;;;5048751;28;20699;-78
2022/04/26 13:14:28;;;;;;;7.13;4.17;;;20.50;71.50;;;;;;5050258;28;20207;-78
2022/04/26 13:16:54;;;;;;;5.70;3.27;;;20.50;72.90;;;;;;5049771;28;20840;-80
2022/04/26 13:19:20;;;;;;;4.60;2.80;;;20.70;70.30;;;;;;5049469;28;20176;-78
2022/04/26 13:21:45;;;;;;;4.83;3.27;;;20.60;71.00;;;;;;5050459;28;20218;-78
2022/04/26 13:24:11;;;;;;;6.47;3.20;;;20.60;69.10;;;;;;5048166;28;20818;-78
2022/04/26 13:26:36;;;;;;;5.20;3.07;;;20.70;70.30;;;;;;5050311;28;20195;-78
2022/04/26 13:29:03;;;;;;;6.40;3.87;;;20.80;70.00;;;;;;5052484;28;20625;-78
2022/04/26 13:31:29;;;;;;;4.30;2.50;;;20.80;69.20;;;;;;5050267;28;20191;-78
2022/04/26 13:33:56;;;;;;;4.87;2.60;;;20.80;70.10;;;;;;5049525;28;20453;-78
2022/04/26 13:36:22;;;;;;;6.37;2.93;;;21.00;69.30;;;;;;5051713;28;20183;-78
2022/04/26 13:38:47;;;;;;;5.77;2.30;;;21.10;68.80;;;;;;5052086;28;20457;-78
2022/04/26 13:41:13;;;;;;;3.50;2.63;;;21.10;67.00;;;;;;5050924;28;20206;-78
2022/04/26 13:43:41;;;;;;;3.73;2.60;;;21.30;68.60;;;;;;5050883;28;20240;-77
2022/04/26 13:46:07;;;;;;;3.30;2.40;;;21.60;67.90;;;;;;5051994;28;20198;-78
2022/04/26 13:48:33;;;;;;;4.93;3.10;;;21.70;68.90;;;;;;5048720;28;20418;-78
2022/04/26 13:50:58;;;;;;;3.00;2.33;;;21.90;68.90;;;;;;5048872;28;20188;-78
2022/04/26 13:53:24;;;;;;;4.47;2.80;;;22.00;67.10;;;;;;5050622;28;20187;-79
2022/04/26 13:55:49;;;;;;;5.00;3.10;;;21.90;66.90;;;;;;5047766;28;20689;-78
2022/04/26 13:58:15;;;;;;;3.20;2.00;;;21.50;66.60;;;;;;5048984;28;20274;-77
2022/04/26 14:00:41;;;;;;;3.73;2.83;;;21.30;69.30;;;;;;5048973;28;20330;-78
2022/04/26 14:03:06;;;;;;;4.30;2.33;;;21.50;68.30;;;;;;5046856;28;20184;-78
2022/04/26 14:05:33;;;;;;;4.43;3.00;;;21.60;67.50;;;;;;5046915;28;20256;-78
2022/04/26 14:07:58;;;;;;;2.53;2.10;;;21.70;68.30;;;;;;5047725;28;20729;-78
2022/04/26 14:10:24;;;;;;;4.70;2.50;;;21.80;69.00;;;;;;5048231;28;20423;-78
2022/04/26 14:12:49;;;;;;;4.57;2.80;;;21.80;68.40;;;;;;5049720;28;20202;-78
2022/04/26 14:23:51;;;;;;;4.23;2.80;;;22.00;68.80;;;;;;4987389;28;20961;-78
2022/04/26 14:26:17;;;;;;;4.33;2.70;;;22.20;68.30;;;;;;4980256;28;20437;-78
2022/04/26 14:28:44;;;;;;;3.10;2.23;;;22.40;68.00;;;;;;5010969;28;20196;-78
2022/04/26 14:31:09;;;;;;;6.13;2.30;;;22.70;67.10;;;;;;5047292;28;20180;-78
2022/04/26 14:33:35;;;;;;;4.63;2.17;;;22.80;67.40;;;;;;5048078;28;20427;-78
2022/04/26 14:36:01;;;;;;;4.53;2.10;;;22.50;67.40;;;;;;5049241;28;20652;-78
2022/04/26 14:38:27;;;;;;;4.13;2.50;;;22.60;67.70;;;;;;5048064;28;20306;-78
2022/04/26 14:40:53;;;;;;;4.37;2.03;;;22.60;67.70;;;;;;5050040;28;20175;-78
2022/04/26 14:43:20;;;;;;;3.50;2.60;;;22.70;67.70;;;;;;5050149;28;20922;-78
2022/04/26 14:45:45;;;;;;;4.57;2.60;;;22.90;67.00;;;;;;5050448;28;20200;-78
2022/04/26 14:48:12;;;;;;;3.90;2.40;;;23.00;66.40;;;;;;5049402;28;20518;-78
2022/04/26 14:50:39;;;;;;;4.73;3.07;;;23.00;65.70;;;;;;5049617;28;20686;-78
2022/04/26 14:53:05;;;;;;;2.70;2.10;;;23.20;65.60;;;;;;5049449;28;20426;-78
2022/04/26 14:55:30;;;;;;;3.40;1.90;;;23.30;65.50;;;;;;5049138;28;20991;-78
2022/04/26 14:57:56;;;;;;;2.97;1.83;;;23.30;64.60;;;;;;5048552;28;20434;-79
2022/04/26 15:00:21;;;;;;;2.07;1.90;;;23.30;64.80;;;;;;5049032;28;20549;-78
2022/04/26 15:02:47;;;;;;;2.73;2.30;;;23.40;64.30;;;;;;5051732;28;20536;-78
2022/04/26 15:05:13;;;;;;;2.30;1.80;;;23.40;64.50;;;;;;5050194;28;20673;-77
2022/04/26 15:10:24;;;;;;;3.83;2.20;;;22.70;64.40;;;;;;5050096;28;20496;-74
2022/04/26 15:18:21;;;;;;;1.97;1.90;;;22.60;64.50;;;;;;5050553;28;20459;-79
2022/04/26 15:20:53;;;;;;;2.43;2.20;;;22.70;64.50;;;;;;5048821;28;20414;-78
2022/04/26 15:23:20;;;;;;;2.30;1.90;;;22.90;64.50;;;;;;5048831;28;20267;-78
2022/04/26 15:25:50;;;;;;;3.87;2.30;;;23.00;64.20;;;;;;5049875;28;20527;-78
2022/04/26 15:28:17;;;;;;;2.40;1.73;;;23.30;64.50;;;;;;5050254;28;20467;-78
2022/04/26 15:30:43;;;;;;;3.07;1.90;;;23.50;63.50;;;;;;5049423;28;20418;-78
2022/04/26 15:33:10;;;;;;;2.23;1.90;;;23.60;64.10;;;;;;5049086;28;20436;-77
2022/04/26 15:35:36;;;;;;;4.20;2.80;;;23.60;63.30;;;;;;5048550;28;20218;-78
2022/04/26 15:38:03;;;;;;;2.67;2.27;;;23.60;63.70;;;;;;5049612;28;20592;-78
2022/04/26 15:40:28;;;;;;;2.63;2.00;;;23.80;62.70;;;;;;5050018;28;20406;-78
2022/04/26 15:42:54;;;;;;;2.90;2.03;;;23.90;62.70;;;;;;5048445;28;20426;-78
2022/04/26 15:45:19;;;;;;;2.77;1.97;;;24.00;63.70;;;;;;5050091;28;20627;-78
2022/04/26 15:47:45;;;;;;;2.70;1.90;;;24.00;63.50;;;;;;5048583;28;20261;-79
2022/04/26 15:50:12;;;;;;;3.67;1.93;;;23.80;63.30;;;;;;5050272;28;20247;-79
2022/04/26 15:52:40;;;;;;;5.10;1.80;;;23.60;63.00;;;;;;5051507;28;20175;-79
2022/04/26 15:55:06;;;;;;;4.23;1.90;;;23.50;62.90;;;;;;5049582;28;20481;-79
2022/04/26 15:57:33;;;;;;;2.60;1.90;;;23.40;62.60;;;;;;5050612;28;20417;-79
2022/04/26 16:00:00;;;;;;;2.20;1.87;;;23.40;62.60;;;;;;5050828;28;20471;-79
2022/04/26 16:02:27;;;;;;;2.03;1.70;;;23.10;63.40;;;;;;5050893;28;20464;-79
2022/04/26 16:04:53;;;;;;;3.10;2.10;;;22.70;63.10;;;;;;5049372;28;20591;-79
2022/04/26 16:07:19;;;;;;;2.80;2.10;;;21.90;64.00;;;;;;5048859;28;20788;-79
2022/04/26 16:20:41;;;;;;;3.67;2.20;;;20.50;67.00;;;;;;5050277;28;20907;-79
2022/04/26 16:23:07;;;;;;;2.47;1.93;;;20.90;66.90;;;;;;5047958;28;20418;-78
2022/04/26 16:25:33;;;;;;;3.23;2.30;;;21.20;66.70;;;;;;5048277;28;20207;-75
2022/04/26 16:28:00;;;;;;;2.20;1.70;;;21.50;66.10;;;;;;5047990;28;20184;-76
2022/04/26 16:30:29;;;;;;;2.33;1.80;;;21.70;66.20;;;;;;5047815;28;20426;-75
2022/04/26 16:32:56;;;;;;;2.77;2.17;;;21.80;65.60;;;;;;5049059;28;20461;-76
2022/04/26 16:35:22;;;;;;;2.70;2.10;;;22.00;66.00;;;;;;5049708;28;20472;-75
2022/04/26 16:37:48;;;;;;;2.13;1.80;;;22.10;65.80;;;;;;5047837;28;20557;-76
2022/04/26 16:40:13;;;;;;;2.67;2.37;;;22.20;65.60;;;;;;5047687;28;20692;-75
2022/04/26 16:42:40;;;;;;;2.13;1.60;;;22.30;65.20;;;;;;5047654;28;20178;-75
2022/04/26 16:45:07;;;;;;;3.00;2.27;;;22.20;64.50;;;;;;5047700;28;20196;-76
2022/04/26 16:47:32;;;;;;;3.47;2.27;;;22.10;65.60;;;;;;5047898;28;20422;-76
2022/04/26 16:49:58;;;;;;;3.63;2.90;;;22.00;65.20;;;;;;5048152;28;20464;-75
2022/04/26 16:52:24;;;;;;;3.73;2.20;;;21.90;65.20;;;;;;5049176;28;20176;-75
2022/04/26 16:54:50;;;;;;;3.93;2.40;;;21.70;65.50;;;;;;5048872;28;20287;-76
2022/04/26 16:57:16;;;;;;;3.40;2.33;;;21.60;65.90;;;;;;5047674;28;20271;-76
2022/04/26 16:59:41;;;;;;;3.37;2.30;;;21.20;66.70;;;;;;5048949;28;20406;-76
2022/04/26 17:02:07;;;;;;;3.93;2.80;;;20.80;67.70;;;;;;5047504;28;20977;-76